sensor_id;sensor_type;location;lat;lon;timestamp;temperature;humidity
17571;DHT22;8903;52.220;20.978;2022-12-18T00:00:59;-5.00;99.90
17571;DHT22;8903;52.220;20.978;2022-12-18T00:03:31;-5.00;99.90
17571;DHT22;8903;52.220;20.978;2022-12-18T00:05:58;-5.00;99.90
17571;DHT22;8903;52.220;20.978;2022-12-18T00:08:25;-5.00;99.90
17571;DHT22;8903;52.220;20.978;2022-12-18T00:10:52;-5.00;99.90
17571;DHT22;8903;52.220;20.978;2022-12-18T00:13:20;-5.00;99.90
17571;DHT22;8903;52.220;20.978;2022-12-18T00:15:47;-4.90;99.90
17571;DHT22;8903;52.220;20.978;2022-12-18T00:18:14;-4.90;99.90
17571;DHT22;8903;52.220;20.978;2022-12-18T00:20:41;-4.90;99.90
17571;DHT22;8903;52.220;20.978;2022-12-18T00:23:08;-4.80;99.90
17571;DHT22;8903;52.220;20.978;2022-12-18T00:25:35;-4.80;99.90
17571;DHT22;8903;52.220;20.978;2022-12-18T00:28:03;-4.80;99.90
17571;DHT22;8903;52.220;20.978;2022-12-18T00:30:31;-4.70;99.90
17571;DHT22;8903;52.220;20.978;2022-12-18T00:32:58;-4.70;99.90
17571;DHT22;8903;52.220;20.978;2022-12-18T00:35:25;-4.70;99.90
17571;DHT22;8903;52.220;20.978;2022-12-18T00:37:52;-4.70;99.90
17571;DHT22;8903;52.220;20.978;2022-12-18T00:40:19;-4.70;99.90
17571;DHT22;8903;52.220;20.978;2022-12-18T00:42:46;-4.70;99.90
17571;DHT22;8903;52.220;20.978;2022-12-18T00:45:24;-4.70;99.90
17571;DHT22;8903;52.220;20.978;2022-12-18T00:47:53;-4.60;99.90
17571;DHT22;8903;52.220;20.978;2022-12-18T00:50:21;-4.60;99.90
17571;DHT22;8903;52.220;20.978;2022-12-18T00:52:48;-4.60;99.90
17571;DHT22;8903;52.220;20.978;2022-12-18T00:55:16;-4.60;99.90
17571;DHT22;8903;52.220;20.978;2022-12-18T00:57:43;-4.60;99.90
17571;DHT22;8903;52.220;20.978;2022-12-18T01:00:13;-4.60;99.90
17571;DHT22;8903;52.220;20.978;2022-12-18T01:02:41;-4.60;99.90
17571;DHT22;8903;52.220;20.978;2022-12-18T01:05:14;-4.50;99.90
17571;DHT22;8903;52.220;20.978;2022-12-18T01:07:41;-4.50;99.90
17571;DHT22;8903;52.220;20.978;2022-12-18T01:10:11;-4.50;99.90
17571;DHT22;8903;52.220;20.978;2022-12-18T01:12:39;-4.50;99.90
17571;DHT22;8903;52.220;20.978;2022-12-18T01:15:08;-4.50;99.90
17571;DHT22;8903;52.220;20.978;2022-12-18T01:17:39;-4.50;99.90
17571;DHT22;8903;52.220;20.978;2022-12-18T01:20:09;-4.50;99.90
17571;DHT22;8903;52.220;20.978;2022-12-18T01:22:37;-4.50;99.90
17571;DHT22;8903;52.220;20.978;2022-12-18T01:25:07;-4.50;99.90
17571;DHT22;8903;52.220;20.978;2022-12-18T01:27:34;-4.50;99.90
17571;DHT22;8903;52.220;20.978;2022-12-18T01:30:04;-4.50;99.90
17571;DHT22;8903;52.220;20.978;2022-12-18T01:32:32;-4.50;99.90
17571;DHT22;8903;52.220;20.978;2022-12-18T01:34:58;-4.50;99.90
17571;DHT22;8903;52.220;20.978;2022-12-18T01:37:28;-4.40;99.90
17571;DHT22;8903;52.220;20.978;2022-12-18T01:39:54;-4.40;99.90
17571;DHT22;8903;52.220;20.978;2022-12-18T01:42:22;-4.40;99.90
17571;DHT22;8903;52.220;20.978;2022-12-18T01:45:02;-4.40;99.90
17571;DHT22;8903;52.220;20.978;2022-12-18T01:47:33;-4.40;99.90
17571;DHT22;8903;52.220;20.978;2022-12-18T01:50:03;-4.40;99.90
17571;DHT22;8903;52.220;20.978;2022-12-18T01:52:33;-4.40;99.90
17571;DHT22;8903;52.220;20.978;2022-12-18T01:55:02;-4.40;99.90
17571;DHT22;8903;52.220;20.978;2022-12-18T01:57:31;-4.40;99.90
17571;DHT22;8903;52.220;20.978;2022-12-18T02:00:02;-4.40;99.90
17571;DHT22;8903;52.220;20.978;2022-12-18T02:02:39;-4.40;99.90
17571;DHT22;8903;52.220;20.978;2022-12-18T02:05:07;-4.40;99.90
17571;DHT22;8903;52.220;20.978;2022-12-18T02:07:43;-4.40;99.90
17571;DHT22;8903;52.220;20.978;2022-12-18T02:10:17;-4.40;99.90
17571;DHT22;8903;52.220;20.978;2022-12-18T02:12:49;-4.50;99.90
17571;DHT22;8903;52.220;20.978;2022-12-18T02:15:24;-4.50;99.90
17571;DHT22;8903;52.220;20.978;2022-12-18T02:17:57;-4.50;99.90
17571;DHT22;8903;52.220;20.978;2022-12-18T02:20:34;-4.50;99.90
17571;DHT22;8903;52.220;20.978;2022-12-18T02:23:12;-4.50;99.90
17571;DHT22;8903;52.220;20.978;2022-12-18T02:26:05;-4.50;99.90
17571;DHT22;8903;52.220;20.978;2022-12-18T02:28:36;-4.50;99.90
17571;DHT22;8903;52.220;20.978;2022-12-18T02:31:10;-4.50;99.90
17571;DHT22;8903;52.220;20.978;2022-12-18T02:33:39;-4.50;99.90
17571;DHT22;8903;52.220;20.978;2022-12-18T02:36:08;-4.50;99.90
17571;DHT22;8903;52.220;20.978;2022-12-18T02:38:37;-4.50;99.90
17571;DHT22;8903;52.220;20.978;2022-12-18T02:41:13;-4.40;99.90
17571;DHT22;8903;52.220;20.978;2022-12-18T02:43:46;-4.40;99.90
17571;DHT22;8903;52.220;20.978;2022-12-18T02:46:27;-4.40;99.90
17571;DHT22;8903;52.220;20.978;2022-12-18T02:49:01;-4.40;99.90
17571;DHT22;8903;52.220;20.978;2022-12-18T02:51:38;-4.50;99.90
17571;DHT22;8903;52.220;20.978;2022-12-18T02:54:10;-4.50;99.90
17571;DHT22;8903;52.220;20.978;2022-12-18T02:56:46;-4.50;99.90
17571;DHT22;8903;52.220;20.978;2022-12-18T02:59:19;-4.50;99.90
17571;DHT22;8903;52.220;20.978;2022-12-18T03:01:57;-4.50;99.90
17571;DHT22;8903;52.220;20.978;2022-12-18T03:04:28;-4.50;99.90
17571;DHT22;8903;52.220;20.978;2022-12-18T03:06:58;-4.50;99.90
17571;DHT22;8903;52.220;20.978;2022-12-18T03:09:31;-4.50;99.90
17571;DHT22;8903;52.220;20.978;2022-12-18T03:12:03;-4.50;99.90
17571;DHT22;8903;52.220;20.978;2022-12-18T03:14:50;-4.50;99.90
17571;DHT22;8903;52.220;20.978;2022-12-18T03:17:22;-4.50;99.90
17571;DHT22;8903;52.220;20.978;2022-12-18T03:19:52;-4.50;99.90
17571;DHT22;8903;52.220;20.978;2022-12-18T03:22:20;-4.50;99.90
17571;DHT22;8903;52.220;20.978;2022-12-18T03:24:52;-4.50;99.90
17571;DHT22;8903;52.220;20.978;2022-12-18T03:27:23;-4.50;99.90
17571;DHT22;8903;52.220;20.978;2022-12-18T03:30:00;-4.60;99.90
17571;DHT22;8903;52.220;20.978;2022-12-18T03:32:38;-4.60;99.90
17571;DHT22;8903;52.220;20.978;2022-12-18T03:35:08;-4.60;99.90
17571;DHT22;8903;52.220;20.978;2022-12-18T03:37:37;-4.60;99.90
17571;DHT22;8903;52.220;20.978;2022-12-18T03:40:05;-4.60;99.90
17571;DHT22;8903;52.220;20.978;2022-12-18T03:42:40;-4.60;99.90
17571;DHT22;8903;52.220;20.978;2022-12-18T03:45:13;-4.60;99.90
17571;DHT22;8903;52.220;20.978;2022-12-18T03:47:53;-4.60;99.90
17571;DHT22;8903;52.220;20.978;2022-12-18T03:50:32;-4.60;99.90
17571;DHT22;8903;52.220;20.978;2022-12-18T03:53:10;-4.60;99.90
17571;DHT22;8903;52.220;20.978;2022-12-18T03:55:38;-4.60;99.90
17571;DHT22;8903;52.220;20.978;2022-12-18T03:58:10;-4.60;99.90
17571;DHT22;8903;52.220;20.978;2022-12-18T04:00:57;-4.60;99.90
17571;DHT22;8903;52.220;20.978;2022-12-18T04:03:26;-4.60;99.90
17571;DHT22;8903;52.220;20.978;2022-12-18T04:05:57;-4.60;99.90
17571;DHT22;8903;52.220;20.978;2022-12-18T04:08:28;-4.60;99.90
17571;DHT22;8903;52.220;20.978;2022-12-18T04:11:02;-4.60;99.90
17571;DHT22;8903;52.220;20.978;2022-12-18T04:13:33;-4.60;99.90
17571;DHT22;8903;52.220;20.978;2022-12-18T04:16:03;-4.60;99.90
17571;DHT22;8903;52.220;20.978;2022-12-18T04:18:30;-4.60;99.90
17571;DHT22;8903;52.220;20.978;2022-12-18T04:20:59;-4.60;99.90
17571;DHT22;8903;52.220;20.978;2022-12-18T04:23:26;-4.60;99.90
17571;DHT22;8903;52.220;20.978;2022-12-18T04:25:56;-4.60;99.90
17571;DHT22;8903;52.220;20.978;2022-12-18T04:28:47;-4.60;99.90
17571;DHT22;8903;52.220;20.978;2022-12-18T04:31:15;-4.70;99.90
17571;DHT22;8903;52.220;20.978;2022-12-18T04:33:42;-4.80;99.90
17571;DHT22;8903;52.220;20.978;2022-12-18T04:36:09;-4.80;99.90
17571;DHT22;8903;52.220;20.978;2022-12-18T04:38:39;-4.90;99.90
17571;DHT22;8903;52.220;20.978;2022-12-18T04:41:10;-4.90;99.90
17571;DHT22;8903;52.220;20.978;2022-12-18T04:43:42;-4.90;99.90
17571;DHT22;8903;52.220;20.978;2022-12-18T04:46:10;-5.00;99.90
17571;DHT22;8903;52.220;20.978;2022-12-18T04:48:37;-5.00;99.90
17571;DHT22;8903;52.220;20.978;2022-12-18T04:51:05;-5.00;99.90
17571;DHT22;8903;52.220;20.978;2022-12-18T04:53:32;-5.00;99.90
17571;DHT22;8903;52.220;20.978;2022-12-18T04:56:04;-5.00;99.90
17571;DHT22;8903;52.220;20.978;2022-12-18T04:58:31;-5.10;99.90
17571;DHT22;8903;52.220;20.978;2022-12-18T05:00:58;-5.10;99.90
17571;DHT22;8903;52.220;20.978;2022-12-18T05:03:26;-5.10;99.90
17571;DHT22;8903;52.220;20.978;2022-12-18T05:05:53;-5.20;99.90
17571;DHT22;8903;52.220;20.978;2022-12-18T05:08:20;-5.20;99.90
17571;DHT22;8903;52.220;20.978;2022-12-18T05:10:47;-5.30;99.90
17571;DHT22;8903;52.220;20.978;2022-12-18T05:13:14;-5.30;99.90
17571;DHT22;8903;52.220;20.978;2022-12-18T05:15:41;-5.30;99.90
17571;DHT22;8903;52.220;20.978;2022-12-18T05:18:08;-5.30;99.90
17571;DHT22;8903;52.220;20.978;2022-12-18T05:20:36;-5.30;99.90
17571;DHT22;8903;52.220;20.978;2022-12-18T05:23:03;-5.30;99.90
17571;DHT22;8903;52.220;20.978;2022-12-18T05:25:30;-5.30;99.90
17571;DHT22;8903;52.220;20.978;2022-12-18T05:27:57;-5.30;99.90
17571;DHT22;8903;52.220;20.978;2022-12-18T05:30:24;-5.30;99.90
17571;DHT22;8903;52.220;20.978;2022-12-18T05:32:51;-5.30;99.90
17571;DHT22;8903;52.220;20.978;2022-12-18T05:35:18;-5.30;99.90
17571;DHT22;8903;52.220;20.978;2022-12-18T05:37:46;-5.40;99.90
17571;DHT22;8903;52.220;20.978;2022-12-18T05:40:13;-5.40;99.90
17571;DHT22;8903;52.220;20.978;2022-12-18T05:42:40;-5.40;99.90
17571;DHT22;8903;52.220;20.978;2022-12-18T05:45:08;-5.40;99.90
17571;DHT22;8903;52.220;20.978;2022-12-18T05:47:35;-5.40;99.90
17571;DHT22;8903;52.220;20.978;2022-12-18T05:50:02;-5.40;99.90
17571;DHT22;8903;52.220;20.978;2022-12-18T05:52:29;-5.40;99.90
17571;DHT22;8903;52.220;20.978;2022-12-18T05:54:58;-5.40;99.90
17571;DHT22;8903;52.220;20.978;2022-12-18T05:57:25;-5.40;99.90
17571;DHT22;8903;52.220;20.978;2022-12-18T05:59:52;-5.40;99.90
17571;DHT22;8903;52.220;20.978;2022-12-18T06:02:19;-5.40;99.90
17571;DHT22;8903;52.220;20.978;2022-12-18T06:04:46;-5.40;99.90
17571;DHT22;8903;52.220;20.978;2022-12-18T06:07:13;-5.40;99.90
17571;DHT22;8903;52.220;20.978;2022-12-18T06:09:40;-5.40;99.90
17571;DHT22;8903;52.220;20.978;2022-12-18T06:12:08;-5.40;99.90
17571;DHT22;8903;52.220;20.978;2022-12-18T06:14:36;-5.30;99.90
17571;DHT22;8903;52.220;20.978;2022-12-18T06:17:03;-5.30;99.90
17571;DHT22;8903;52.220;20.978;2022-12-18T06:19:29;-5.30;99.90
17571;DHT22;8903;52.220;20.978;2022-12-18T06:21:56;-5.20;99.90
17571;DHT22;8903;52.220;20.978;2022-12-18T06:24:24;-5.20;99.90
17571;DHT22;8903;52.220;20.978;2022-12-18T06:26:51;-5.20;99.90
17571;DHT22;8903;52.220;20.978;2022-12-18T06:29:19;-5.20;99.90
17571;DHT22;8903;52.220;20.978;2022-12-18T06:31:46;-5.10;99.90
17571;DHT22;8903;52.220;20.978;2022-12-18T06:34:13;-5.10;99.90
17571;DHT22;8903;52.220;20.978;2022-12-18T06:36:40;-5.10;99.90
17571;DHT22;8903;52.220;20.978;2022-12-18T06:39:07;-5.10;99.90
17571;DHT22;8903;52.220;20.978;2022-12-18T06:41:34;-5.10;99.90
17571;DHT22;8903;52.220;20.978;2022-12-18T06:44:01;-5.00;99.90
17571;DHT22;8903;52.220;20.978;2022-12-18T06:46:30;-5.00;99.90
17571;DHT22;8903;52.220;20.978;2022-12-18T06:48:57;-5.00;99.90
17571;DHT22;8903;52.220;20.978;2022-12-18T06:51:25;-5.00;99.90
17571;DHT22;8903;52.220;20.978;2022-12-18T06:53:52;-5.00;99.90
17571;DHT22;8903;52.220;20.978;2022-12-18T06:56:19;-5.00;99.90
17571;DHT22;8903;52.220;20.978;2022-12-18T06:58:46;-4.90;99.90
17571;DHT22;8903;52.220;20.978;2022-12-18T07:01:13;-4.90;99.90
17571;DHT22;8903;52.220;20.978;2022-12-18T07:03:41;-4.90;99.90
17571;DHT22;8903;52.220;20.978;2022-12-18T07:06:13;-4.90;99.90
17571;DHT22;8903;52.220;20.978;2022-12-18T07:08:40;-4.90;99.90
17571;DHT22;8903;52.220;20.978;2022-12-18T07:11:07;-4.90;99.90
17571;DHT22;8903;52.220;20.978;2022-12-18T07:13:34;-4.90;99.90
17571;DHT22;8903;52.220;20.978;2022-12-18T07:16:06;-4.80;99.90
17571;DHT22;8903;52.220;20.978;2022-12-18T07:18:33;-4.80;99.90
17571;DHT22;8903;52.220;20.978;2022-12-18T07:21:04;-4.70;99.90
17571;DHT22;8903;52.220;20.978;2022-12-18T07:23:32;-4.70;99.90
17571;DHT22;8903;52.220;20.978;2022-12-18T07:26:01;-4.70;99.90
17571;DHT22;8903;52.220;20.978;2022-12-18T07:28:28;-4.70;99.90
17571;DHT22;8903;52.220;20.978;2022-12-18T07:30:55;-4.70;99.90
17571;DHT22;8903;52.220;20.978;2022-12-18T07:33:22;-4.70;99.90
17571;DHT22;8903;52.220;20.978;2022-12-18T07:35:49;-4.70;99.90
17571;DHT22;8903;52.220;20.978;2022-12-18T07:38:17;-4.60;99.90
17571;DHT22;8903;52.220;20.978;2022-12-18T07:40:44;-4.70;99.90
17571;DHT22;8903;52.220;20.978;2022-12-18T07:43:11;-4.60;99.90
17571;DHT22;8903;52.220;20.978;2022-12-18T07:45:39;-4.60;99.90
17571;DHT22;8903;52.220;20.978;2022-12-18T07:48:06;-4.60;99.90
17571;DHT22;8903;52.220;20.978;2022-12-18T07:50:33;-4.60;99.90
17571;DHT22;8903;52.220;20.978;2022-12-18T07:53:00;-4.60;99.90
17571;DHT22;8903;52.220;20.978;2022-12-18T07:55:30;-4.60;99.90
17571;DHT22;8903;52.220;20.978;2022-12-18T07:58:00;-4.60;99.90
17571;DHT22;8903;52.220;20.978;2022-12-18T08:00:27;-4.60;99.90
17571;DHT22;8903;52.220;20.978;2022-12-18T08:02:54;-4.70;99.90
17571;DHT22;8903;52.220;20.978;2022-12-18T08:05:21;-4.70;99.90
17571;DHT22;8903;52.220;20.978;2022-12-18T08:07:48;-4.70;99.90
17571;DHT22;8903;52.220;20.978;2022-12-18T08:10:15;-4.70;99.90
17571;DHT22;8903;52.220;20.978;2022-12-18T08:12:44;-4.70;99.90
17571;DHT22;8903;52.220;20.978;2022-12-18T08:15:11;-4.50;99.90
17571;DHT22;8903;52.220;20.978;2022-12-18T08:17:37;-4.50;99.90
17571;DHT22;8903;52.220;20.978;2022-12-18T08:20:05;-4.50;99.90
17571;DHT22;8903;52.220;20.978;2022-12-18T08:22:33;-4.50;99.90
17571;DHT22;8903;52.220;20.978;2022-12-18T08:25:00;-4.60;99.90
17571;DHT22;8903;52.220;20.978;2022-12-18T08:27:27;-4.60;99.90
17571;DHT22;8903;52.220;20.978;2022-12-18T08:29:56;-4.70;99.90
17571;DHT22;8903;52.220;20.978;2022-12-18T08:32:22;-4.70;99.90
17571;DHT22;8903;52.220;20.978;2022-12-18T08:34:49;-4.60;99.90
17571;DHT22;8903;52.220;20.978;2022-12-18T08:37:16;-4.60;99.90
17571;DHT22;8903;52.220;20.978;2022-12-18T08:39:43;-4.50;99.90
17571;DHT22;8903;52.220;20.978;2022-12-18T08:42:10;-4.50;99.90
17571;DHT22;8903;52.220;20.978;2022-12-18T08:44:56;-4.50;99.90
17571;DHT22;8903;52.220;20.978;2022-12-18T08:47:23;-4.50;99.90
17571;DHT22;8903;52.220;20.978;2022-12-18T08:49:51;-4.50;99.90
17571;DHT22;8903;52.220;20.978;2022-12-18T08:52:18;-4.50;99.90
17571;DHT22;8903;52.220;20.978;2022-12-18T08:54:45;-4.60;99.90
17571;DHT22;8903;52.220;20.978;2022-12-18T08:57:12;-4.60;99.90
17571;DHT22;8903;52.220;20.978;2022-12-18T08:59:39;-4.60;99.90
17571;DHT22;8903;52.220;20.978;2022-12-18T09:02:08;-4.70;99.90
17571;DHT22;8903;52.220;20.978;2022-12-18T09:04:36;-4.60;99.90
17571;DHT22;8903;52.220;20.978;2022-12-18T09:07:03;-4.60;99.90
17571;DHT22;8903;52.220;20.978;2022-12-18T09:09:29;-4.50;99.90
17571;DHT22;8903;52.220;20.978;2022-12-18T09:11:56;-4.30;99.90
17571;DHT22;8903;52.220;20.978;2022-12-18T09:14:23;-4.30;99.90
17571;DHT22;8903;52.220;20.978;2022-12-18T09:16:50;-4.30;99.90
17571;DHT22;8903;52.220;20.978;2022-12-18T09:19:18;-4.30;99.90
17571;DHT22;8903;52.220;20.978;2022-12-18T09:21:45;-4.30;99.90
17571;DHT22;8903;52.220;20.978;2022-12-18T09:24:13;-4.10;99.90
17571;DHT22;8903;52.220;20.978;2022-12-18T09:26:40;-4.20;99.90
17571;DHT22;8903;52.220;20.978;2022-12-18T09:29:07;-4.20;99.90
17571;DHT22;8903;52.220;20.978;2022-12-18T09:31:35;-4.20;99.90
17571;DHT22;8903;52.220;20.978;2022-12-18T09:34:02;-4.20;99.90
17571;DHT22;8903;52.220;20.978;2022-12-18T09:36:34;-4.10;99.90
17571;DHT22;8903;52.220;20.978;2022-12-18T09:39:01;-4.00;99.90
17571;DHT22;8903;52.220;20.978;2022-12-18T09:41:43;-3.90;99.90
17571;DHT22;8903;52.220;20.978;2022-12-18T09:44:20;-3.80;99.90
17571;DHT22;8903;52.220;20.978;2022-12-18T09:46:57;-3.80;99.90
17571;DHT22;8903;52.220;20.978;2022-12-18T09:49:29;-3.80;99.90
17571;DHT22;8903;52.220;20.978;2022-12-18T09:52:02;-3.70;99.90
17571;DHT22;8903;52.220;20.978;2022-12-18T09:54:33;-3.70;99.90
17571;DHT22;8903;52.220;20.978;2022-12-18T09:57:02;-3.70;99.90
17571;DHT22;8903;52.220;20.978;2022-12-18T09:59:34;-3.70;99.90
17571;DHT22;8903;52.220;20.978;2022-12-18T10:02:14;-3.70;99.90
17571;DHT22;8903;52.220;20.978;2022-12-18T10:04:41;-3.80;99.90
17571;DHT22;8903;52.220;20.978;2022-12-18T10:07:15;-3.80;99.90
17571;DHT22;8903;52.220;20.978;2022-12-18T10:09:51;-3.80;99.90
17571;DHT22;8903;52.220;20.978;2022-12-18T10:12:28;-3.80;99.90
17571;DHT22;8903;52.220;20.978;2022-12-18T10:15:05;-3.90;99.90
17571;DHT22;8903;52.220;20.978;2022-12-18T10:17:38;-3.90;99.90
17571;DHT22;8903;52.220;20.978;2022-12-18T10:20:13;-3.80;99.90
17571;DHT22;8903;52.220;20.978;2022-12-18T10:22:50;-3.80;99.90
17571;DHT22;8903;52.220;20.978;2022-12-18T10:25:23;-3.80;99.90
17571;DHT22;8903;52.220;20.978;2022-12-18T10:27:53;-3.80;99.90
17571;DHT22;8903;52.220;20.978;2022-12-18T10:30:23;-3.80;99.90
17571;DHT22;8903;52.220;20.978;2022-12-18T10:32:50;-3.80;99.90
17571;DHT22;8903;52.220;20.978;2022-12-18T10:35:19;-3.80;99.90
17571;DHT22;8903;52.220;20.978;2022-12-18T10:38:06;-3.70;99.90
17571;DHT22;8903;52.220;20.978;2022-12-18T10:40:47;-3.70;99.90
17571;DHT22;8903;52.220;20.978;2022-12-18T10:43:15;-3.70;99.90
17571;DHT22;8903;52.220;20.978;2022-12-18T10:46:00;-3.70;99.90
17571;DHT22;8903;52.220;20.978;2022-12-18T10:48:28;-3.80;99.90
17571;DHT22;8903;52.220;20.978;2022-12-18T10:50:55;-3.70;99.90
17571;DHT22;8903;52.220;20.978;2022-12-18T10:53:26;-3.70;99.90
17571;DHT22;8903;52.220;20.978;2022-12-18T10:55:54;-3.60;99.90
17571;DHT22;8903;52.220;20.978;2022-12-18T10:58:26;-3.60;99.90
17571;DHT22;8903;52.220;20.978;2022-12-18T11:01:08;-3.50;99.90
17571;DHT22;8903;52.220;20.978;2022-12-18T11:03:37;-3.50;99.90
17571;DHT22;8903;52.220;20.978;2022-12-18T11:06:09;-3.40;99.90
17571;DHT22;8903;52.220;20.978;2022-12-18T11:08:40;-3.40;99.90
17571;DHT22;8903;52.220;20.978;2022-12-18T11:11:16;-3.30;99.90
17571;DHT22;8903;52.220;20.978;2022-12-18T11:13:53;-3.30;99.90
17571;DHT22;8903;52.220;20.978;2022-12-18T11:16:23;-3.20;99.90
17571;DHT22;8903;52.220;20.978;2022-12-18T11:18:50;-3.20;99.90
17571;DHT22;8903;52.220;20.978;2022-12-18T11:21:17;-3.20;99.90
17571;DHT22;8903;52.220;20.978;2022-12-18T11:23:49;-3.10;99.90
17571;DHT22;8903;52.220;20.978;2022-12-18T11:26:16;-3.00;99.90
17571;DHT22;8903;52.220;20.978;2022-12-18T11:28:45;-3.00;99.90
17571;DHT22;8903;52.220;20.978;2022-12-18T11:31:22;-2.90;99.90
17571;DHT22;8903;52.220;20.978;2022-12-18T11:33:54;-2.80;99.90
17571;DHT22;8903;52.220;20.978;2022-12-18T11:36:22;-2.80;99.90
17571;DHT22;8903;52.220;20.978;2022-12-18T11:38:53;-3.00;99.90
17571;DHT22;8903;52.220;20.978;2022-12-18T11:41:25;-3.10;99.90
17571;DHT22;8903;52.220;20.978;2022-12-18T11:44:18;-3.10;99.90
17571;DHT22;8903;52.220;20.978;2022-12-18T11:46:49;-3.00;99.90
17571;DHT22;8903;52.220;20.978;2022-12-18T11:49:22;-2.90;99.90
17571;DHT22;8903;52.220;20.978;2022-12-18T11:51:55;-2.90;99.90
17571;DHT22;8903;52.220;20.978;2022-12-18T11:54:26;-2.90;99.90
17571;DHT22;8903;52.220;20.978;2022-12-18T11:56:56;-3.00;99.90
17571;DHT22;8903;52.220;20.978;2022-12-18T11:59:31;-3.00;99.90
17571;DHT22;8903;52.220;20.978;2022-12-18T12:02:10;-3.00;99.90
17571;DHT22;8903;52.220;20.978;2022-12-18T12:04:50;-3.00;99.90
17571;DHT22;8903;52.220;20.978;2022-12-18T12:07:27;-2.90;99.90
17571;DHT22;8903;52.220;20.978;2022-12-18T12:10:04;-2.90;99.90
17571;DHT22;8903;52.220;20.978;2022-12-18T12:12:40;-2.90;99.90
17571;DHT22;8903;52.220;20.978;2022-12-18T12:15:19;-2.80;99.90
17571;DHT22;8903;52.220;20.978;2022-12-18T12:17:55;-2.90;99.90
17571;DHT22;8903;52.220;20.978;2022-12-18T12:20:29;-2.90;99.90
17571;DHT22;8903;52.220;20.978;2022-12-18T12:23:01;-2.80;99.90
17571;DHT22;8903;52.220;20.978;2022-12-18T12:25:36;-2.70;99.90
17571;DHT22;8903;52.220;20.978;2022-12-18T12:28:15;-2.60;99.90
17571;DHT22;8903;52.220;20.978;2022-12-18T12:30:55;-2.60;99.90
17571;DHT22;8903;52.220;20.978;2022-12-18T12:33:36;-2.60;99.90
17571;DHT22;8903;52.220;20.978;2022-12-18T12:36:09;-2.60;99.90
17571;DHT22;8903;52.220;20.978;2022-12-18T12:38:41;-2.70;99.90
17571;DHT22;8903;52.220;20.978;2022-12-18T12:41:15;-2.80;99.90
17571;DHT22;8903;52.220;20.978;2022-12-18T12:44:00;-2.80;99.90
17571;DHT22;8903;52.220;20.978;2022-12-18T12:46:30;-2.90;99.90
17571;DHT22;8903;52.220;20.978;2022-12-18T12:49:01;-3.00;99.90
17571;DHT22;8903;52.220;20.978;2022-12-18T12:51:32;-2.90;99.90
17571;DHT22;8903;52.220;20.978;2022-12-18T12:53:59;-2.90;99.90
17571;DHT22;8903;52.220;20.978;2022-12-18T12:56:36;-2.80;99.90
17571;DHT22;8903;52.220;20.978;2022-12-18T12:59:12;-2.80;99.90
17571;DHT22;8903;52.220;20.978;2022-12-18T13:01:47;-2.70;99.90
17571;DHT22;8903;52.220;20.978;2022-12-18T13:04:21;-2.80;99.90
17571;DHT22;8903;52.220;20.978;2022-12-18T13:06:56;-2.80;99.90
17571;DHT22;8903;52.220;20.978;2022-12-18T13:09:30;-2.80;99.90
17571;DHT22;8903;52.220;20.978;2022-12-18T13:12:03;-2.80;99.90
17571;DHT22;8903;52.220;20.978;2022-12-18T13:14:48;-2.80;99.90
17571;DHT22;8903;52.220;20.978;2022-12-18T13:17:32;-2.80;99.90
17571;DHT22;8903;52.220;20.978;2022-12-18T13:20:11;-2.90;99.90
17571;DHT22;8903;52.220;20.978;2022-12-18T13:22:42;-3.00;99.90
17571;DHT22;8903;52.220;20.978;2022-12-18T13:25:34;-3.00;99.90
17571;DHT22;8903;52.220;20.978;2022-12-18T13:28:08;-3.00;99.90
17571;DHT22;8903;52.220;20.978;2022-12-18T13:30:45;-3.00;99.90
17571;DHT22;8903;52.220;20.978;2022-12-18T13:36:30;-3.10;99.90
17571;DHT22;8903;52.220;20.978;2022-12-18T13:39:20;-3.10;99.90
17571;DHT22;8903;52.220;20.978;2022-12-18T13:41:49;-3.20;99.90
17571;DHT22;8903;52.220;20.978;2022-12-18T13:44:25;-3.30;99.90
17571;DHT22;8903;52.220;20.978;2022-12-18T13:46:55;-3.30;99.90
17571;DHT22;8903;52.220;20.978;2022-12-18T13:49:24;-3.30;99.90
17571;DHT22;8903;52.220;20.978;2022-12-18T13:51:54;-3.40;99.90
17571;DHT22;8903;52.220;20.978;2022-12-18T13:54:25;-3.40;99.90
17571;DHT22;8903;52.220;20.978;2022-12-18T13:56:54;-3.40;99.90
17571;DHT22;8903;52.220;20.978;2022-12-18T13:59:22;-3.40;99.90
17571;DHT22;8903;52.220;20.978;2022-12-18T14:01:54;-3.50;99.90
17571;DHT22;8903;52.220;20.978;2022-12-18T14:04:24;-3.50;99.90
17571;DHT22;8903;52.220;20.978;2022-12-18T14:06:55;-3.50;99.90
17571;DHT22;8903;52.220;20.978;2022-12-18T14:09:26;-3.60;99.90
17571;DHT22;8903;52.220;20.978;2022-12-18T14:11:53;-3.60;99.90
17571;DHT22;8903;52.220;20.978;2022-12-18T14:14:43;-3.70;99.90
17571;DHT22;8903;52.220;20.978;2022-12-18T14:17:12;-3.70;99.90
17571;DHT22;8903;52.220;20.978;2022-12-18T14:19:43;-3.80;99.90
17571;DHT22;8903;52.220;20.978;2022-12-18T14:22:16;-3.80;99.90
17571;DHT22;8903;52.220;20.978;2022-12-18T14:24:43;-3.90;99.90
17571;DHT22;8903;52.220;20.978;2022-12-18T14:27:21;-4.00;99.90
17571;DHT22;8903;52.220;20.978;2022-12-18T14:29:49;-4.00;99.90
17571;DHT22;8903;52.220;20.978;2022-12-18T14:32:18;-3.90;99.90
17571;DHT22;8903;52.220;20.978;2022-12-18T14:34:46;-3.90;99.90
17571;DHT22;8903;52.220;20.978;2022-12-18T14:37:16;-3.90;99.90
17571;DHT22;8903;52.220;20.978;2022-12-18T14:39:54;-3.90;99.90
17571;DHT22;8903;52.220;20.978;2022-12-18T14:42:22;-3.90;99.90
17571;DHT22;8903;52.220;20.978;2022-12-18T14:47:55;-3.90;99.90
17571;DHT22;8903;52.220;20.978;2022-12-18T14:50:22;-3.90;99.90
17571;DHT22;8903;52.220;20.978;2022-12-18T14:52:49;-3.90;99.90
17571;DHT22;8903;52.220;20.978;2022-12-18T14:55:17;-3.90;99.90
17571;DHT22;8903;52.220;20.978;2022-12-18T14:57:45;-3.90;99.90
17571;DHT22;8903;52.220;20.978;2022-12-18T15:00:16;-3.80;99.90
17571;DHT22;8903;52.220;20.978;2022-12-18T15:02:45;-3.80;99.90
17571;DHT22;8903;52.220;20.978;2022-12-18T15:05:19;-3.80;99.90
17571;DHT22;8903;52.220;20.978;2022-12-18T15:07:49;-3.80;99.90
17571;DHT22;8903;52.220;20.978;2022-12-18T15:10:17;-3.80;99.90
17571;DHT22;8903;52.220;20.978;2022-12-18T15:12:46;-3.80;99.90
17571;DHT22;8903;52.220;20.978;2022-12-18T15:15:44;-3.80;99.90
17571;DHT22;8903;52.220;20.978;2022-12-18T15:18:13;-3.80;99.90
17571;DHT22;8903;52.220;20.978;2022-12-18T15:20:45;-3.80;99.90
17571;DHT22;8903;52.220;20.978;2022-12-18T15:23:18;-3.80;99.90
17571;DHT22;8903;52.220;20.978;2022-12-18T15:25:47;-3.90;99.90
17571;DHT22;8903;52.220;20.978;2022-12-18T15:28:22;-3.90;99.90
17571;DHT22;8903;52.220;20.978;2022-12-18T15:31:01;-3.90;99.90
17571;DHT22;8903;52.220;20.978;2022-12-18T15:33:31;-3.90;99.90
17571;DHT22;8903;52.220;20.978;2022-12-18T15:36:03;-4.00;99.90
17571;DHT22;8903;52.220;20.978;2022-12-18T15:38:30;-3.90;99.90
17571;DHT22;8903;52.220;20.978;2022-12-18T15:40:58;-3.90;99.90
17571;DHT22;8903;52.220;20.978;2022-12-18T15:43:26;-3.90;99.90
17571;DHT22;8903;52.220;20.978;2022-12-18T15:46:02;-3.90;99.90
17571;DHT22;8903;52.220;20.978;2022-12-18T15:48:29;-3.90;99.90
17571;DHT22;8903;52.220;20.978;2022-12-18T15:51:00;-3.90;99.90
17571;DHT22;8903;52.220;20.978;2022-12-18T15:53:30;-3.90;99.90
17571;DHT22;8903;52.220;20.978;2022-12-18T15:55:59;-3.90;99.90
17571;DHT22;8903;52.220;20.978;2022-12-18T15:58:43;-3.90;99.90